Time;durP1;ratioP1;P1;durP2;ratioP2;P2;SDS_P1;SDS_P2;PMS_P1;PMS_P2;Temp;Humidity;BMP_temperature;BMP_pressure;BME280_temperature;BME280_humidity;BME280_pressure;Samples;Min_cycle;Max_cycle;Signal;HPM_P1;HPM_P2
2022/07/16 00:02:10;;;;;;;6.38;4.30;;;;;;;15.96;72.24;101383.38;5044002;28;20091;-83
2022/07/16 00:04:36;;;;;;;7.30;4.30;;;;;;;15.93;72.60;101384.53;5042505;28;20053;-84
2022/07/16 00:07:03;;;;;;;9.25;4.10;;;;;;;15.90;72.65;101381.44;5044256;28;20072;-83
2022/07/16 00:09:30;;;;;;;12.50;4.80;;;;;;;15.86;72.57;101375.66;5049675;28;20111;-84
2022/07/16 00:11:58;;;;;;;6.93;4.20;;;;;;;15.85;72.25;101386.41;5052615;28;20053;-83
2022/07/16 00:14:24;;;;;;;7.53;4.45;;;;;;;15.89;72.39;101388.53;5047396;28;20053;-82
2022/07/16 00:16:51;;;;;;;7.07;4.10;;;;;;;15.90;72.09;101395.44;5046757;28;20132;-83
2022/07/16 00:19:18;;;;;;;6.82;4.00;;;;;;;15.88;71.91;101393.97;5047139;28;20052;-83
2022/07/16 00:21:46;;;;;;;8.32;3.90;;;;;;;15.94;71.72;101388.00;5048449;28;20057;-83
2022/07/16 00:24:12;;;;;;;7.68;4.38;;;;;;;15.93;71.72;101396.91;5047939;28;20072;-83
2022/07/16 00:26:39;;;;;;;7.55;4.30;;;;;;;15.95;71.50;101392.28;5047248;28;20053;-82
2022/07/16 00:29:07;;;;;;;7.45;4.03;;;;;;;15.87;71.96;101393.16;5046808;28;20069;-82
2022/07/16 00:31:35;;;;;;;9.15;3.97;;;;;;;15.82;72.21;101390.19;5046195;28;20084;-83
2022/07/16 00:34:01;;;;;;;6.63;4.10;;;;;;;15.78;72.27;101394.16;5046793;28;20050;-82
2022/07/16 00:36:28;;;;;;;8.25;4.15;;;;;;;15.70;72.73;101380.19;5045311;28;20108;-83
2022/07/16 00:38:55;;;;;;;9.13;4.57;;;;;;;15.54;73.34;101383.69;5045337;28;20053;-83
2022/07/16 00:41:21;;;;;;;13.55;4.80;;;;;;;15.53;73.89;101388.16;5044679;28;20072;-82
2022/07/16 00:43:49;;;;;;;7.80;4.28;;;;;;;15.45;74.17;101385.53;5044641;28;20084;-81
2022/07/16 00:46:17;;;;;;;6.75;4.20;;;;;;;15.43;74.28;101384.88;5044479;28;20085;-84
2022/07/16 00:48:45;;;;;;;16.23;4.65;;;;;;;15.40;74.54;101394.94;5044074;28;20157;-82
2022/07/16 00:51:12;;;;;;;13.45;4.68;;;;;;;15.37;74.34;101384.72;5044861;28;20080;-81
2022/07/16 00:53:40;;;;;;;8.05;4.93;;;;;;;15.36;74.83;101383.09;5042319;28;20069;-82
2022/07/16 00:56:09;;;;;;;9.75;4.70;;;;;;;15.36;74.80;101389.19;5043531;28;20064;-80
2022/07/16 00:58:38;;;;;;;8.00;4.85;;;;;;;15.32;74.54;101387.88;5041648;28;20050;-80
2022/07/16 01:01:04;;;;;;;7.78;4.65;;;;;;;15.31;74.84;101396.78;5043199;28;20042;-81
2022/07/16 01:03:33;;;;;;;7.95;4.45;;;;;;;15.26;75.39;101393.81;5042725;28;20444;-81
2022/07/16 01:06:01;;;;;;;8.35;5.07;;;;;;;15.28;74.90;101394.47;5051211;28;20077;-84
2022/07/16 01:08:28;;;;;;;8.23;4.47;;;;;;;15.24;75.23;101385.25;5052193;28;20042;-83
2022/07/16 01:10:56;;;;;;;9.05;4.63;;;;;;;15.16;75.30;101382.63;5051739;28;20132;-82
2022/07/16 01:13:24;;;;;;;9.65;4.85;;;;;;;15.27;74.79;101387.53;5052158;28;20056;-83
2022/07/16 01:15:50;;;;;;;6.65;4.80;;;;;;;15.22;74.97;101395.94;5045090;28;20077;-82
2022/07/16 01:18:17;;;;;;;6.93;4.22;;;;;;;15.15;75.00;101384.44;5046004;28;20088;-82
2022/07/16 01:20:45;;;;;;;12.38;4.63;;;;;;;15.16;75.06;101393.97;5044985;28;20088;-83
2022/07/16 01:23:19;;;;;;;8.85;4.70;;;;;;;15.13;75.63;101388.22;5042841;28;20073;-82
2022/07/16 01:25:45;;;;;;;10.57;4.93;;;;;;;15.06;75.72;101388.09;5040778;28;20208;-82
2022/07/16 01:28:12;;;;;;;10.18;4.70;;;;;;;14.99;76.05;101381.00;5040378;28;20076;-82
2022/07/16 01:30:39;;;;;;;8.25;4.72;;;;;;;14.95;76.34;101393.69;5040815;28;20480;-82
2022/07/16 01:33:19;;;;;;;9.65;4.78;;;;;;;14.89;76.46;101397.81;5040644;28;20077;-82
2022/07/16 01:35:46;;;;;;;9.77;4.90;;;;;;;14.89;76.61;101403.09;5040126;28;20430;-82
2022/07/16 01:38:13;;;;;;;11.18;4.75;;;;;;;14.82;76.84;101396.00;5039076;28;20083;-83
2022/07/16 01:40:41;;;;;;;12.35;4.88;;;;;;;14.80;77.04;101396.16;5039961;28;20053;-82
2022/07/16 01:43:14;;;;;;;16.08;4.70;;;;;;;14.77;77.23;101396.50;5045094;28;20096;-81
2022/07/16 01:45:40;;;;;;;12.85;4.45;;;;;;;14.71;77.01;101391.88;5050744;28;20053;-82
2022/07/16 01:48:07;;;;;;;15.70;5.25;;;;;;;14.69;77.29;101395.66;5047694;28;20179;-84
2022/07/16 01:50:34;;;;;;;13.88;4.65;;;;;;;14.76;77.18;101392.22;5047029;28;20133;-83
2022/07/16 01:53:00;;;;;;;9.00;4.50;;;;;;;14.74;77.23;101396.81;5046092;28;20084;-83
2022/07/16 01:55:27;;;;;;;10.65;4.57;;;;;;;14.73;77.32;101397.81;5044877;28;20506;-82
2022/07/16 01:57:55;;;;;;;8.20;4.78;;;;;;;14.70;77.52;101398.13;5044126;28;20085;-82
2022/07/16 02:00:22;;;;;;;12.98;5.03;;;;;;;14.66;77.35;101391.53;5041764;28;20119;-83
2022/07/16 02:02:49;;;;;;;11.95;4.57;;;;;;;14.67;77.58;101400.28;5042895;28;20052;-82
2022/07/16 02:05:16;;;;;;;11.85;4.95;;;;;;;14.67;77.57;101403.72;5043390;28;20080;-83
2022/07/16 02:07:42;;;;;;;13.15;4.65;;;;;;;14.66;77.54;101393.34;5042464;28;20559;-81
2022/07/16 02:10:09;;;;;;;10.80;4.80;;;;;;;14.66;77.66;101399.44;5044860;28;20045;-82
2022/07/16 02:12:36;;;;;;;11.43;4.32;;;;;;;14.77;77.48;101395.66;5047679;28;20049;-82
2022/07/16 02:15:05;;;;;;;10.93;4.80;;;;;;;14.72;77.73;101388.25;5046527;28;20077;-80
2022/07/16 02:17:32;;;;;;;11.82;4.80;;;;;;;14.67;78.04;101390.56;5045184;28;20045;-80
2022/07/16 02:19:58;;;;;;;9.40;4.80;;;;;;;14.67;78.24;101387.09;5044467;28;20128;-83
2022/07/16 02:22:25;;;;;;;17.98;5.57;;;;;;;14.67;78.37;101387.09;5043467;28;20497;-82
2022/07/16 02:24:52;;;;;;;12.52;5.00;;;;;;;14.63;78.44;101386.63;5043314;28;20088;-83
2022/07/16 02:27:18;;;;;;;11.68;5.00;;;;;;;14.58;78.41;101386.28;5031052;28;20073;-82
2022/07/16 02:29:45;;;;;;;11.77;5.40;;;;;;;14.69;78.28;101383.31;5041551;28;20041;-83
2022/07/16 02:32:13;;;;;;;14.18;4.60;;;;;;;14.60;78.64;101385.16;5046280;28;20084;-82
2022/07/16 02:34:40;;;;;;;9.90;4.75;;;;;;;14.58;78.80;101389.75;5044578;28;20077;-81
2022/07/16 02:37:06;;;;;;;18.25;5.22;;;;;;;14.56;79.17;101391.72;5044630;28;20045;-81
2022/07/16 02:39:33;;;;;;;18.85;4.90;;;;;;;14.58;79.12;101397.66;5044978;28;20081;-83
2022/07/16 02:42:00;;;;;;;19.83;6.25;;;;;;;14.62;79.09;101390.25;5042495;28;20084;-84
2022/07/16 02:44:27;;;;;;;15.45;4.82;;;;;;;14.72;78.61;101390.06;5040922;28;20077;-84
2022/07/16 02:46:53;;;;;;;9.65;4.53;;;;;;;14.70;78.63;101392.88;5041022;28;20132;-83
2022/07/16 02:49:21;;;;;;;11.50;4.65;;;;;;;14.68;78.70;101400.09;5041278;28;20096;-83
2022/07/16 02:51:48;;;;;;;9.32;4.65;;;;;;;14.77;78.07;101391.22;5040867;28;20092;-83
2022/07/16 02:54:15;;;;;;;11.23;5.78;;;;;;;14.66;78.48;101381.00;5041544;28;20077;-84
2022/07/16 02:56:42;;;;;;;16.77;4.75;;;;;;;14.55;78.95;101384.81;5042670;28;20099;-82
2022/07/16 02:59:08;;;;;;;11.07;4.70;;;;;;;14.47;79.38;101390.06;5043184;28;20045;-83
2022/07/16 03:01:35;;;;;;;8.63;4.82;;;;;;;14.43;79.66;101393.19;5041220;28;20092;-83
2022/07/16 03:04:01;;;;;;;9.18;4.50;;;;;;;14.32;79.83;101386.38;5040515;28;20484;-83
2022/07/16 03:06:30;;;;;;;9.43;4.57;;;;;;;14.23;80.29;101390.81;5041871;28;20077;-81
2022/07/16 03:08:56;;;;;;;10.70;4.70;;;;;;;14.20;80.42;101401.66;5041395;28;20049;-83
2022/07/16 03:11:23;;;;;;;7.82;4.43;;;;;;;14.16;80.44;101404.78;5042358;28;20049;-82
2022/07/16 03:13:49;;;;;;;11.20;4.43;;;;;;;14.11;80.50;101415.81;5040388;28;20049;-81
2022/07/16 03:16:16;;;;;;;11.13;4.95;;;;;;;14.12;80.60;101409.56;5040197;28;20367;-80
2022/07/16 03:18:43;;;;;;;7.82;4.55;;;;;;;13.99;81.31;101413.63;5040272;28;20045;-82
2022/07/16 03:21:09;;;;;;;11.38;5.30;;;;;;;13.99;81.27;101411.81;5041596;28;20132;-82
2022/07/16 03:23:37;;;;;;;10.15;5.05;;;;;;;14.20;80.49;101422.72;5042279;28;20213;-82
2022/07/16 03:26:04;;;;;;;12.75;4.90;;;;;;;14.20;81.12;101416.63;5043039;28;20106;-81
2022/07/16 03:28:31;;;;;;;10.93;4.70;;;;;;;14.31;80.30;101418.13;5041520;28;20049;-82
2022/07/16 03:30:57;;;;;;;10.05;5.00;;;;;;;14.40;80.08;101422.44;5041038;28;20073;-82
2022/07/16 03:33:24;;;;;;;11.13;5.07;;;;;;;14.35;80.30;101424.72;5040650;28;20084;-82
2022/07/16 03:35:51;;;;;;;11.23;4.70;;;;;;;14.32;80.44;101425.88;5040681;28;20080;-81
2022/07/16 03:41:03;;;;;;;8.13;4.72;;;;;;;14.43;80.19;101419.50;5042554;28;20543;-81
2022/07/16 03:43:29;;;;;;;9.52;4.55;;;;;;;14.36;80.15;101421.94;5041834;28;20132;-80
2022/07/16 03:45:56;;;;;;;7.63;4.63;;;;;;;14.54;79.56;101416.56;5044380;28;20054;-82
2022/07/16 03:48:23;;;;;;;7.57;5.00;;;;;;;14.37;79.73;101414.84;5045970;28;20052;-82
2022/07/16 03:50:49;;;;;;;10.27;5.32;;;;;;;14.35;80.03;101408.94;5043907;28;20049;-83
2022/07/16 03:53:16;;;;;;;10.50;4.82;;;;;;;14.35;79.75;101411.56;5044309;28;20081;-83
2022/07/16 03:55:42;;;;;;;8.30;5.13;;;;;;;14.36;80.12;101414.03;5057912;23;20087;-78
2022/07/16 03:58:10;;;;;;;8.68;4.95;;;;;;;14.43;80.17;101403.72;5031601;28;20350;-77
2022/07/16 04:00:37;;;;;;;8.40;5.20;;;;;;;14.48;80.11;101411.97;5032044;28;20128;-77
2022/07/16 04:03:04;;;;;;;11.18;5.25;;;;;;;14.58;79.91;101420.53;5032421;28;20081;-77
2022/07/16 04:05:30;;;;;;;10.20;5.15;;;;;;;14.58;79.72;101415.28;5032319;28;20054;-76
2022/07/16 04:07:57;;;;;;;9.73;5.15;;;;;;;14.63;79.82;101414.78;5031964;28;20084;-77
2022/07/16 04:10:24;;;;;;;10.48;5.13;;;;;;;14.59;80.01;101422.19;5031352;28;20053;-77
2022/07/16 04:12:50;;;;;;;8.98;4.70;;;;;;;14.74;79.76;101425.78;5032789;28;20521;-77
2022/07/16 04:15:18;;;;;;;9.77;4.90;;;;;;;14.72;79.65;101422.50;5031173;28;20131;-76
2022/07/16 04:17:45;;;;;;;8.35;5.32;;;;;;;14.70;79.64;101424.47;5031017;28;20084;-77
2022/07/16 04:20:12;;;;;;;8.90;5.60;;;;;;;14.85;79.40;101432.56;5031008;28;20099;-77
2022/07/16 04:22:39;;;;;;;12.38;4.65;;;;;;;14.87;79.08;101428.78;5030837;28;20103;-78
2022/07/16 04:25:06;;;;;;;6.35;5.07;;;;;;;14.86;79.17;101435.03;5034353;28;20108;-79
2022/07/16 04:27:33;;;;;;;7.40;4.68;;;;;;;14.92;79.36;101439.66;5023648;28;20073;-79
2022/07/16 04:29:59;;;;;;;10.27;4.97;;;;;;;15.01;79.18;101439.66;5030819;28;20045;-79
2022/07/16 04:32:27;;;;;;;11.68;5.28;;;;;;;15.16;78.65;101436.16;5038136;28;20160;-80
2022/07/16 04:34:54;;;;;;;9.75;5.47;;;;;;;15.21;78.51;101443.56;5034414;28;20085;-79
2022/07/16 04:37:21;;;;;;;10.25;5.13;;;;;;;15.23;78.48;101437.16;5033613;28;20058;-79
2022/07/16 04:39:47;;;;;;;9.68;4.38;;;;;;;15.33;78.63;101447.53;5033524;28;20548;-80
2022/07/16 04:42:14;;;;;;;10.23;4.63;;;;;;;15.31;78.60;101444.22;5034758;28;20523;-79
2022/07/16 04:44:40;;;;;;;9.38;5.30;;;;;;;15.42;78.65;101443.06;5034685;28;20077;-79
2022/07/16 04:47:07;;;;;;;9.18;5.05;;;;;;;15.29;78.48;101443.56;5034575;28;20068;-79
2022/07/16 04:49:35;;;;;;;7.60;4.60;;;;;;;15.41;78.56;101446.69;5034486;28;20045;-80
2022/07/16 04:52:02;;;;;;;9.43;5.38;;;;;;;15.31;78.63;101446.03;5039422;28;20527;-81
2022/07/16 04:54:29;;;;;;;10.73;4.95;;;;;;;15.54;78.66;101447.00;5040535;28;20152;-79
2022/07/16 04:56:56;;;;;;;7.05;4.22;;;;;;;15.55;78.86;101446.84;5040461;28;20088;-79
2022/07/16 04:59:22;;;;;;;6.95;4.85;;;;;;;15.52;79.19;101452.44;5037826;28;20061;-79
2022/07/16 05:01:49;;;;;;;9.15;4.82;;;;;;;15.41;79.78;101434.31;5036236;28;20421;-79
2022/07/16 05:04:16;;;;;;;10.20;5.40;;;;;;;15.25;80.88;101432.53;5035400;28;20081;-79
2022/07/16 05:06:44;;;;;;;10.18;5.40;;;;;;;15.20;80.68;101440.13;5035123;28;20109;-78
2022/07/16 05:09:11;;;;;;;11.70;5.20;;;;;;;15.22;80.78;101432.88;5034281;28;20049;-78
2022/07/16 05:11:38;;;;;;;7.57;5.00;;;;;;;15.45;80.75;101440.91;5034956;28;20088;-78
2022/07/16 05:14:04;;;;;;;9.50;5.10;;;;;;;15.36;80.76;101436.66;5035043;28;20096;-78
2022/07/16 05:16:31;;;;;;;8.23;4.78;;;;;;;15.35;80.61;101429.72;5034301;28;20089;-79
2022/07/16 05:18:58;;;;;;;10.90;5.10;;;;;;;15.35;80.05;101439.44;5035306;28;20085;-80
2022/07/16 05:21:24;;;;;;;9.50;5.30;;;;;;;15.38;80.06;101439.94;5036671;28;20081;-79
2022/07/16 05:23:52;;;;;;;7.70;4.90;;;;;;;15.58;79.63;101449.16;5035869;28;20533;-78
2022/07/16 05:26:19;;;;;;;10.90;5.38;;;;;;;15.77;79.00;101453.22;5038565;28;20120;-79
2022/07/16 05:28:46;;;;;;;10.32;5.13;;;;;;;16.07;77.90;101456.88;5039921;28;20299;-79
2022/07/16 05:31:12;;;;;;;11.73;5.30;;;;;;;16.27;77.07;101447.56;5040640;28;20123;-79
2022/07/16 05:33:39;;;;;;;10.82;4.78;;;;;;;16.47;76.06;101455.88;5039835;28;20049;-79
2022/07/16 05:36:06;;;;;;;14.27;5.00;;;;;;;16.65;75.41;101450.31;5041348;28;20073;-79
2022/07/16 05:38:33;;;;;;;9.30;5.45;;;;;;;16.85;74.17;101440.94;5040536;28;20053;-78
2022/07/16 05:41:01;;;;;;;10.90;4.50;;;;;;;16.92;74.04;101439.22;5034801;28;20147;-78
2022/07/16 05:43:27;;;;;;;14.73;5.13;;;;;;;17.15;73.38;101446.28;5034638;28;20132;-79
2022/07/16 05:45:54;;;;;;;7.93;4.40;;;;;;;17.41;72.51;101444.06;5034532;28;20137;-78
2022/07/16 05:48:21;;;;;;;6.15;4.45;;;;;;;17.71;71.00;101442.28;5034193;28;20089;-81
2022/07/16 05:50:48;;;;;;;9.13;4.70;;;;;;;18.71;68.64;101450.41;5034311;28;20053;-78
2022/07/16 05:53:15;;;;;;;10.82;4.13;;;;;;;19.06;67.39;101439.88;5034662;28;20532;-78
2022/07/16 05:55:41;;;;;;;14.38;4.72;;;;;;;18.98;64.86;101430.22;5036428;28;20088;-78
2022/07/16 05:58:09;;;;;;;7.63;4.30;;;;;;;18.87;65.04;101425.47;5035636;28;20087;-79
2022/07/16 06:00:36;;;;;;;10.07;4.50;;;;;;;18.78;64.36;101424.75;5037711;28;20448;-80
2022/07/16 06:03:03;;;;;;;8.38;4.18;;;;;;;18.69;64.18;101420.59;5034402;28;20081;-78
2022/07/16 06:05:29;;;;;;;7.45;4.20;;;;;;;18.39;64.57;101422.53;5033463;28;20177;-77
2022/07/16 06:07:56;;;;;;;10.48;4.20;;;;;;;18.01;65.61;101416.56;5033785;28;20049;-78
2022/07/16 06:10:23;;;;;;;10.82;4.78;;;;;;;17.96;65.10;101420.81;5033712;28;20129;-78
2022/07/16 06:12:49;;;;;;;14.15;4.85;;;;;;;18.06;65.51;101430.09;5033924;28;20405;-77
2022/07/16 06:15:17;;;;;;;10.25;4.30;;;;;;;18.07;66.01;101426.44;5033353;28;20053;-78
2022/07/16 06:17:44;;;;;;;11.65;4.50;;;;;;;17.95;66.38;101438.53;5034778;28;20050;-79
2022/07/16 06:20:12;;;;;;;17.25;5.22;;;;;;;17.92;66.95;101451.31;5034418;28;20079;-79
2022/07/16 06:22:39;;;;;;;12.77;4.53;;;;;;;17.76;67.44;101449.66;5036207;28;20569;-79
2022/07/16 06:25:07;;;;;;;11.00;4.22;;;;;;;17.75;67.05;101450.66;5038837;28;20474;-79
2022/07/16 06:27:33;;;;;;;11.13;4.82;;;;;;;17.71;67.31;101452.88;5039612;28;20091;-80
2022/07/16 06:30:03;;;;;;;8.75;4.35;;;;;;;17.73;66.86;101444.75;5041128;28;20109;-81
2022/07/16 06:32:32;;;;;;;15.98;5.10;;;;;;;17.79;66.91;101451.94;5042922;28;20049;-80
2022/07/16 06:34:59;;;;;;;9.40;4.65;;;;;;;17.64;67.08;101456.38;5042188;28;20068;-78
2022/07/16 06:37:26;;;;;;;11.82;4.80;;;;;;;17.66;67.22;101451.75;5035907;28;20099;-75
2022/07/16 06:39:52;;;;;;;6.32;4.80;;;;;;;17.86;67.19;101463.47;5034193;28;20076;-79
2022/07/16 06:42:19;;;;;;;8.85;5.15;;;;;;;17.89;67.61;101471.03;5033377;28;20489;-80
2022/07/16 06:44:46;;;;;;;9.98;5.25;;;;;;;17.91;67.35;101469.03;5033056;28;20080;-77
2022/07/16 06:47:12;;;;;;;10.32;5.15;;;;;;;17.84;68.55;101474.22;5032599;28;20041;-77
2022/07/16 06:49:40;;;;;;;10.18;4.95;;;;;;;18.40;67.44;101484.28;5032714;28;20046;-78
2022/07/16 06:52:08;;;;;;;9.27;5.07;;;;;;;18.79;65.61;101484.75;5034856;28;20077;-78
2022/07/16 06:54:35;;;;;;;9.63;5.10;;;;;;;19.30;65.50;101492.53;5032990;28;20431;-77
2022/07/16 06:57:01;;;;;;;12.05;5.53;;;;;;;19.52;65.06;101494.13;5032815;28;20116;-77
2022/07/16 06:59:28;;;;;;;9.57;5.47;;;;;;;20.29;63.54;101505.59;5035351;28;20076;-78
2022/07/16 07:01:55;;;;;;;10.80;5.55;;;;;;;21.20;60.94;101517.47;5038566;28;20080;-78
2022/07/16 07:04:21;;;;;;;8.70;6.00;;;;;;;21.16;61.09;101495.78;5035783;28;20076;-80
2022/07/16 07:06:49;;;;;;;14.77;6.68;;;;;;;21.79;59.92;101511.28;5033239;28;20553;-78
2022/07/16 07:09:16;;;;;;;10.77;6.00;;;;;;;22.05;59.88;101513.91;5032595;28;20084;-78
2022/07/16 07:11:43;;;;;;;11.25;5.70;;;;;;;22.26;59.33;101517.31;5032553;28;20060;-78
2022/07/16 07:14:10;;;;;;;9.45;6.05;;;;;;;21.45;61.86;101499.88;5031539;28;20098;-79
2022/07/16 07:16:37;;;;;;;10.98;6.90;;;;;;;21.50;61.42;101502.75;5032376;28;20455;-79
2022/07/16 07:19:04;;;;;;;9.77;6.43;;;;;;;21.93;60.59;101512.91;5032689;28;20056;-80
2022/07/16 07:21:31;;;;;;;11.13;6.80;;;;;;;22.44;59.33;101514.78;5032402;28;20650;-78
2022/07/16 07:23:59;;;;;;;9.40;6.78;;;;;;;21.78;61.11;101505.13;5033926;28;20076;-79
2022/07/16 07:26:26;;;;;;;10.27;7.13;;;;;;;21.80;60.79;101507.59;5035420;28;20132;-77
2022/07/16 07:28:52;;;;;;;11.82;6.90;;;;;;;22.83;59.69;101527.91;5032752;28;20486;-79
2022/07/16 07:31:19;;;;;;;11.18;6.50;;;;;;;22.95;57.91;101516.56;5032050;28;20486;-78
2022/07/16 07:33:46;;;;;;;10.27;6.88;;;;;;;22.60;59.86;101513.47;5032170;28;20132;-78
2022/07/16 07:36:13;;;;;;;13.50;7.55;;;;;;;22.11;61.01;101505.09;5031937;28;20145;-77
2022/07/16 07:38:39;;;;;;;11.65;7.20;;;;;;;22.33;60.40;101502.94;5032778;28;20414;-78
2022/07/16 07:41:09;;;;;;;11.30;7.40;;;;;;;22.88;59.41;101510.44;5032705;28;20069;-77
2022/07/16 07:43:35;;;;;;;13.07;7.00;;;;;;;22.87;58.93;101519.47;5032201;28;20533;-79
2022/07/16 07:46:02;;;;;;;12.20;7.50;;;;;;;23.30;58.55;101525.72;5032488;28;20143;-78
2022/07/16 07:48:29;;;;;;;10.43;7.13;;;;;;;23.71;57.30;101519.00;5031925;28;20136;-78
2022/07/16 07:50:55;;;;;;;11.15;6.95;;;;;;;24.09;55.76;101530.31;5031606;28;20045;-77
2022/07/16 07:53:22;;;;;;;11.38;6.82;;;;;;;24.24;56.49;101526.41;5031831;28;20057;-79
2022/07/16 07:55:49;;;;;;;11.68;6.25;;;;;;;25.06;54.43;101535.63;5031706;28;20524;-78
2022/07/16 07:58:17;;;;;;;12.82;6.82;;;;;;;24.78;53.91;101528.19;5031741;28;20442;-78
2022/07/16 08:00:44;;;;;;;9.60;6.38;;;;;;;25.55;52.68;101533.56;5031786;28;20124;-78
2022/07/16 08:03:11;;;;;;;9.27;6.97;;;;;;;25.89;51.33;101530.09;5039510;28;20042;-78
2022/07/16 08:05:38;;;;;;;9.43;6.45;;;;;;;25.48;51.99;101527.53;5042952;28;20046;-79
2022/07/16 08:08:05;;;;;;;12.82;6.88;;;;;;;24.63;54.30;101515.22;5034810;28;20080;-80
2022/07/16 08:10:32;;;;;;;10.57;7.55;;;;;;;23.10;57.38;101509.88;5033252;28;20517;-77
2022/07/16 08:12:59;;;;;;;12.65;6.97;;;;;;;23.59;57.71;101518.13;5033142;28;20053;-78
2022/07/16 08:15:27;;;;;;;12.50;6.97;;;;;;;24.83;54.33;101530.19;5032577;28;20132;-77
2022/07/16 08:17:53;;;;;;;9.93;7.43;;;;;;;24.20;54.58;101519.88;5031903;28;20478;-78
2022/07/16 08:20:20;;;;;;;9.88;6.60;;;;;;;24.58;54.42;101517.75;5032032;28;20049;-77
2022/07/16 08:22:47;;;;;;;10.43;7.50;;;;;;;24.56;54.34;101519.06;5032106;28;20052;-76
2022/07/16 08:27:58;;;;;;;9.63;6.65;;;;;;;23.60;57.07;101509.06;5031258;28;20433;-77
2022/07/16 08:30:25;;;;;;;10.35;6.07;;;;;;;23.45;58.00;101504.84;5031151;28;20049;-78
2022/07/16 08:32:53;;;;;;;9.38;6.88;;;;;;;23.55;57.53;101506.22;5030652;28;20456;-76
2022/07/16 08:35:19;;;;;;;7.93;6.15;;;;;;;24.80;55.02;101529.59;5030610;28;20080;-77
2022/07/16 08:37:48;;;;;;;8.10;6.03;;;;;;;23.94;56.31;101516.50;5030483;28;20061;-77
2022/07/16 08:40:16;;;;;;;6.93;5.88;;;;;;;23.01;58.56;101502.34;5030489;28;20124;-78
2022/07/16 08:42:43;;;;;;;7.53;5.55;;;;;;;22.52;60.44;101512.69;5030718;28;20092;-77
2022/07/16 08:45:13;;;;;;;6.90;5.00;;;;;;;22.18;61.20;101515.72;5027972;28;20084;-77
2022/07/16 08:47:40;;;;;;;6.85;5.13;;;;;;;21.84;62.47;101519.47;5030987;28;20478;-78
2022/07/16 08:50:11;;;;;;;7.35;4.97;;;;;;;21.60;63.71;101512.16;5032006;28;20132;-79
2022/07/16 08:52:39;;;;;;;6.28;5.13;;;;;;;21.57;63.08;101513.38;5031663;28;20045;-78
2022/07/16 08:55:08;;;;;;;9.88;5.28;;;;;;;21.28;64.48;101517.28;5030435;28;20517;-78
2022/07/16 08:57:36;;;;;;;9.52;5.30;;;;;;;21.49;63.96;101527.72;5031350;28;20042;-77
2022/07/16 09:00:05;;;;;;;6.80;5.03;;;;;;;21.36;65.07;101538.38;5031494;28;20045;-78
2022/07/16 09:02:32;;;;;;;7.35;4.97;;;;;;;21.11;64.92;101529.34;5032811;28;20073;-80
2022/07/16 09:05:00;;;;;;;7.28;5.03;;;;;;;20.93;65.47;101537.09;5033258;28;20077;-78
2022/07/16 09:07:29;;;;;;;6.07;5.10;;;;;;;20.71;66.08;101539.91;5032430;28;20048;-79
2022/07/16 09:09:55;;;;;;;8.00;4.90;;;;;;;21.05;65.71;101551.44;5030814;28;20095;-79
2022/07/16 09:12:33;;;;;;;6.43;3.95;;;;;;;21.39;62.85;101550.47;5029416;28;20060;-77
2022/07/16 09:15:00;;;;;;;4.93;4.22;;;;;;;21.77;61.64;101555.97;5027439;28;20061;-77
2022/07/16 09:17:27;;;;;;;5.05;3.67;;;;;;;22.38;60.48;101577.78;5031839;28;20136;-79
2022/07/16 09:19:53;;;;;;;9.15;3.80;;;;;;;22.46;59.66;101564.22;5031279;28;20061;-78
2022/07/16 09:22:20;;;;;;;8.07;4.05;;;;;;;22.55;59.32;101571.97;5027775;28;20144;-78
2022/07/16 09:24:52;;;;;;;5.30;4.15;;;;;;;22.36;59.62;101576.34;5033388;28;20056;-79
2022/07/16 09:27:20;;;;;;;8.23;4.65;;;;;;;22.35;59.73;101582.72;5034061;28;20053;-78
2022/07/16 09:29:50;;;;;;;6.03;3.88;;;;;;;22.54;58.89;101578.34;5032374;28;20076;-79
2022/07/16 09:32:28;;;;;;;4.82;3.92;;;;;;;21.78;59.42;101560.25;5030948;28;20180;-78
2022/07/16 09:35:02;;;;;;;6.00;4.30;;;;;;;22.26;56.86;101576.78;5031909;28;20049;-80
2022/07/16 09:37:45;;;;;;;6.43;3.63;;;;;;;22.11;56.97;101566.41;5033432;28;20054;-78
2022/07/16 09:40:14;;;;;;;5.95;3.60;;;;;;;22.37;56.61;101578.81;5024521;28;20425;-79
2022/07/16 09:42:41;;;;;;;7.95;3.20;;;;;;;23.20;54.24;101584.13;5033310;28;20045;-79
2022/07/16 09:45:19;;;;;;;5.03;3.38;;;;;;;24.07;51.99;101587.72;5034657;28;20045;-79
2022/07/16 09:47:46;;;;;;;4.63;2.88;;;;;;;24.07;51.18;101590.41;5036079;28;20140;-78
2022/07/16 09:50:12;;;;;;;5.13;3.20;;;;;;;23.33;52.06;101580.53;5035923;28;20136;-78
2022/07/16 09:52:39;;;;;;;5.07;2.97;;;;;;;22.57;50.34;101572.59;5036987;28;20073;-79
2022/07/16 09:55:09;;;;;;;3.50;2.72;;;;;;;21.87;51.14;101556.34;5045512;23;20036;-86
2022/07/16 09:57:37;;;;;;;2.40;2.20;;;;;;;21.78;51.31;101557.59;4998239;28;20046;-85
2022/07/16 10:00:08;;;;;;;3.47;2.30;;;;;;;22.06;50.93;101587.53;5006052;28;20062;-86
2022/07/16 10:02:35;;;;;;;5.82;2.63;;;;;;;22.37;50.30;101593.97;4993478;28;20054;-86
2022/07/16 10:05:05;;;;;;;3.78;2.67;;;;;;;22.09;50.24;101580.94;5000960;28;20046;-86
2022/07/16 10:07:33;;;;;;;3.55;2.05;;;;;;;22.03;50.50;101581.78;4999082;28;20438;-87
2022/07/16 10:10:03;;;;;;;4.88;2.55;;;;;;;22.23;49.22;101582.53;4997802;28;20069;-88
2022/07/16 10:12:30;;;;;;;4.30;2.35;;;;;;;23.09;49.02;101599.00;4996586;28;20042;-88
2022/07/16 10:14:59;;;;;;;4.40;2.33;;;;;;;23.40;48.13;101602.69;4996680;28;20101;-85
2022/07/16 10:17:34;;;;;;;4.10;2.58;;;;;;;23.34;48.61;101585.66;5007997;28;20109;-84
2022/07/16 10:20:05;;;;;;;5.03;2.42;;;;;;;22.80;48.56;101592.38;4982995;28;20050;-85
2022/07/16 10:22:35;;;;;;;4.33;2.33;;;;;;;23.07;48.38;101606.41;4998598;28;20054;-84
2022/07/16 10:25:11;;;;;;;4.78;2.60;;;;;;;22.97;49.90;101610.56;5000700;28;20346;-84
2022/07/16 10:27:38;;;;;;;4.70;2.83;;;;;;;22.72;50.15;101595.25;5001163;28;20082;-81
2022/07/16 10:30:14;;;;;;;3.97;2.22;;;;;;;23.59;49.41;101614.28;5002701;28;20137;-83
2022/07/16 10:33:13;;;;;;;2.75;2.45;;;;;;;23.60;49.04;101616.75;4996729;28;20109;-83
2022/07/16 10:35:44;;;;;;;4.88;2.80;;;;;;;23.37;49.77;101605.78;5000626;28;20082;-83
2022/07/16 10:38:12;;;;;;;3.38;2.58;;;;;;;23.54;48.33;101616.78;5002152;28;20051;-83
2022/07/16 10:40:41;;;;;;;3.65;2.28;;;;;;;24.35;46.87;101619.31;4999989;28;20069;-83
2022/07/16 10:43:17;;;;;;;3.50;2.58;;;;;;;24.15;46.64;101604.28;5000373;28;20055;-84
2022/07/16 10:45:54;;;;;;;4.25;2.38;;;;;;;24.11;46.37;101603.06;4999567;28;20073;-84
2022/07/16 10:48:22;;;;;;;4.00;2.20;;;;;;;24.26;46.60;101620.66;5001285;28;20058;-81
2022/07/16 10:51:13;;;;;;;4.57;2.58;;;;;;;24.38;47.30;101618.88;5003284;28;20105;-83
2022/07/16 10:54:29;;;;;;;4.07;2.55;;;;;;;24.29;47.46;101615.69;5000523;28;20097;-83
2022/07/16 10:57:01;;;;;;;3.00;2.67;;;;;;;25.11;44.93;101629.47;4998019;28;20519;-83
2022/07/16 10:59:30;;;;;;;7.23;2.70;;;;;;;24.84;44.35;101622.84;5000436;28;20137;-85
2022/07/16 11:02:01;;;;;;;5.18;2.70;;;;;;;24.74;45.39;101616.16;5000713;28;20298;-85
2022/07/16 11:04:34;;;;;;;3.92;2.80;;;;;;;23.74;45.77;101606.75;4997984;28;20045;-84
2022/07/16 11:07:02;;;;;;;3.85;2.50;;;;;;;23.94;45.80;101618.06;4996685;28;20143;-84
2022/07/16 11:09:31;;;;;;;3.92;2.80;;;;;;;24.12;45.98;101611.91;5000593;28;20427;-83
2022/07/16 11:12:08;;;;;;;6.15;2.70;;;;;;;24.31;46.33;101623.47;4999381;28;20082;-84
2022/07/16 11:14:36;;;;;;;4.32;2.63;;;;;;;24.37;46.44;101623.41;4991839;28;20065;-84
2022/07/16 11:17:05;;;;;;;4.57;2.80;;;;;;;24.23;46.44;101615.72;5009107;28;20080;-83
2022/07/16 11:19:37;;;;;;;3.55;2.60;;;;;;;24.16;46.84;101611.25;5005169;28;20057;-84
2022/07/16 11:22:04;;;;;;;3.20;2.58;;;;;;;24.20;46.32;101618.84;4984024;28;20058;-83
2022/07/16 11:24:31;;;;;;;3.90;2.60;;;;;;;23.95;46.97;101619.72;4982393;28;20082;-85
2022/07/16 11:26:59;;;;;;;4.55;2.45;;;;;;;24.12;46.23;101619.94;4997120;28;20080;-84
2022/07/16 11:29:27;;;;;;;4.70;2.80;;;;;;;24.77;45.63;101634.44;5001519;28;20415;-84
2022/07/16 11:31:55;;;;;;;4.20;2.45;;;;;;;24.27;45.10;101616.94;5002006;28;20414;-83